Time;durP1;ratioP1;P1;durP2;ratioP2;P2;SDS_P1;SDS_P2;PMS_P1;PMS_P2;Temp;Humidity;BMP_temperature;BMP_pressure;BME280_temperature;BME280_humidity;BME280_pressure;Samples;Min_cycle;Max_cycle;Signal;HPM_P1;HPM_P2
2021/11/10 00:01:25;;;;;;;17.38;8.30;;;;;;;;;;5032623;28;20550;-82
2021/11/10 00:03:50;;;;;;;16.42;8.05;;;;;;;;;;5035206;28;20035;-84
2021/11/10 00:06:16;;;;;;;14.27;7.95;;;;;;;;;;5056212;28;20395;-83
2021/11/10 00:08:41;;;;;;;16.40;7.63;;;;;;;;;;5055366;28;20025;-82
2021/11/10 00:11:06;;;;;;;15.90;7.55;;;;;;;;;;5059399;28;20509;-85
2021/11/10 00:13:32;;;;;;;13.13;6.97;;;;;;;;;;5055817;28;20025;-83
2021/11/10 00:15:57;;;;;;;15.90;7.43;;;;;;;;;;5075831;28;20024;-84
2021/11/10 00:18:23;;;;;;;14.20;6.72;;;;;;;;;;5055890;28;20039;-83
2021/11/10 00:20:48;;;;;;;15.80;7.70;;;;;;;;;;5055634;28;20040;-82
2021/11/10 00:23:14;;;;;;;13.43;7.10;;;;;;;;;;5055289;28;20416;-83
2021/11/10 00:25:40;;;;;;;17.58;8.32;;;;;;;;;;5057058;28;20107;-82
2021/11/10 00:28:12;;;;;;;17.10;7.55;;;;;;;;;;5055691;28;20090;-84
2021/11/10 00:30:38;;;;;;;17.07;7.77;;;;;;;;;;5055279;28;20024;-83
2021/11/10 00:33:03;;;;;;;15.85;8.10;;;;;;;;;;5055263;28;20660;-82
2021/11/10 00:35:29;;;;;;;16.55;7.82;;;;;;;;;;5052008;28;20122;-85
2021/11/10 00:37:56;;;;;;;16.52;7.75;;;;;;;;;;5067967;28;20384;-83
2021/11/10 00:40:22;;;;;;;17.50;8.05;;;;;;;;;;5058702;28;20069;-83
2021/11/10 00:42:47;;;;;;;16.55;7.85;;;;;;;;;;5055053;28;20430;-86
2021/11/10 00:45:13;;;;;;;16.67;7.88;;;;;;;;;;5055061;28;20036;-83
2021/11/10 00:47:38;;;;;;;17.50;8.27;;;;;;;;;;5055170;28;20124;-83
2021/11/10 00:50:05;;;;;;;22.35;8.95;;;;;;;;;;5054835;28;20119;-84
2021/11/10 00:52:31;;;;;;;17.02;7.88;;;;;;;;;;5055178;28;20039;-83
2021/11/10 00:54:56;;;;;;;18.08;8.32;;;;;;;;;;5060419;28;20032;-83
2021/11/10 00:57:22;;;;;;;21.05;8.73;;;;;;;;;;5058443;28;20099;-82
2021/11/10 00:59:47;;;;;;;17.92;8.63;;;;;;;;;;5058720;28;20028;-83
2021/11/10 01:02:13;;;;;;;15.80;7.65;;;;;;;;;;5073268;28;20025;-83
2021/11/10 01:04:40;;;;;;;16.67;7.82;;;;;;;;;;5056915;28;20379;-83
2021/11/10 01:07:08;;;;;;;15.38;7.82;;;;;;;;;;5056011;28;20059;-85
2021/11/10 01:09:44;;;;;;;14.93;7.50;;;;;;;;;;5073729;28;20475;-83
2021/11/10 01:12:12;;;;;;;16.35;8.38;;;;;;;;;;5053705;28;20064;-86
2021/11/10 01:14:39;;;;;;;18.90;8.43;;;;;;;;;;5069785;28;20024;-85
2021/11/10 01:17:05;;;;;;;16.98;8.10;;;;;;;;;;5054856;28;20021;-85
2021/11/10 01:19:32;;;;;;;17.80;8.38;;;;;;;;;;5055185;28;20028;-83
2021/11/10 01:21:58;;;;;;;16.73;7.65;;;;;;;;;;5054950;28;20064;-83
2021/11/10 01:24:23;;;;;;;16.45;7.53;;;;;;;;;;5054372;28;20059;-82
2021/11/10 01:26:49;;;;;;;20.00;7.97;;;;;;;;;;5055378;28;20032;-84
2021/11/10 01:29:14;;;;;;;15.77;7.57;;;;;;;;;;5061359;28;20387;-83
2021/11/10 01:31:40;;;;;;;18.05;7.82;;;;;;;;;;5054064;28;20036;-84
2021/11/10 01:34:08;;;;;;;17.00;8.32;;;;;;;;;;5058996;28;20024;-83
2021/11/10 01:36:35;;;;;;;16.58;8.50;;;;;;;;;;5076138;28;20107;-83
2021/11/10 01:39:00;;;;;;;19.27;8.23;;;;;;;;;;5062901;28;20025;-83
2021/11/10 01:41:26;;;;;;;17.25;8.13;;;;;;;;;;5057849;28;20497;-85
2021/11/10 01:43:52;;;;;;;21.65;8.15;;;;;;;;;;5059458;28;20540;-85
2021/11/10 01:46:17;;;;;;;17.88;8.18;;;;;;;;;;5059115;28;20017;-84
2021/11/10 01:48:42;;;;;;;16.00;8.25;;;;;;;;;;5066787;28;20032;-83
2021/11/10 01:51:08;;;;;;;15.13;8.05;;;;;;;;;;5078230;28;20389;-83
2021/11/10 01:53:34;;;;;;;20.20;8.48;;;;;;;;;;5058362;28;20032;-83
2021/11/10 01:56:00;;;;;;;16.20;7.78;;;;;;;;;;5058447;28;20427;-83
2021/11/10 01:58:26;;;;;;;15.25;7.95;;;;;;;;;;5058941;28;20024;-83
2021/11/10 02:00:52;;;;;;;14.73;7.93;;;;;;;;;;5056387;28;20032;-83
2021/11/10 02:03:17;;;;;;;18.48;8.15;;;;;;;;;;5058096;28;20107;-83
2021/11/10 02:05:43;;;;;;;16.88;7.85;;;;;;;;;;5077050;28;20040;-85
2021/11/10 02:08:08;;;;;;;16.45;8.13;;;;;;;;;;5057789;28;20036;-83
2021/11/10 02:10:34;;;;;;;15.70;7.60;;;;;;;;;;5057979;28;20051;-86
2021/11/10 02:13:00;;;;;;;12.85;7.60;;;;;;;;;;5083795;28;20020;-83
2021/11/10 02:15:25;;;;;;;16.70;8.57;;;;;;;;;;5058288;28;20535;-83
2021/11/10 02:17:55;;;;;;;16.52;8.60;;;;;;;;;;5056768;28;20032;-84
2021/11/10 02:20:21;;;;;;;15.65;8.15;;;;;;;;;;5074036;28;20025;-83
2021/11/10 02:22:49;;;;;;;17.73;8.38;;;;;;;;;;5057508;28;20052;-85
2021/11/10 02:25:15;;;;;;;15.98;8.40;;;;;;;;;;5058619;28;20365;-83
2021/11/10 02:27:41;;;;;;;18.50;7.95;;;;;;;;;;5060968;28;20029;-84
2021/11/10 02:30:12;;;;;;;17.02;8.82;;;;;;;;;;5057906;28;20364;-82
2021/11/10 02:32:38;;;;;;;15.80;7.70;;;;;;;;;;5057428;28;20028;-83
2021/11/10 02:35:05;;;;;;;15.10;7.75;;;;;;;;;;5061423;28;20395;-86
2021/11/10 02:37:31;;;;;;;16.50;8.15;;;;;;;;;;5068862;28;20021;-84
2021/11/10 02:39:57;;;;;;;16.35;8.40;;;;;;;;;;5057379;28;20025;-83
2021/11/10 02:42:23;;;;;;;16.90;8.43;;;;;;;;;;5054147;28;20028;-84
2021/11/10 02:44:53;;;;;;;15.73;8.10;;;;;;;;;;5055585;28;20029;-83
2021/11/10 02:47:20;;;;;;;15.88;8.00;;;;;;;;;;5059903;28;20028;-86
2021/11/10 02:49:46;;;;;;;19.92;8.15;;;;;;;;;;5062613;28;20369;-85
2021/11/10 02:52:15;;;;;;;17.63;7.95;;;;;;;;;;5066841;28;20024;-83
2021/11/10 02:54:44;;;;;;;17.92;8.55;;;;;;;;;;5058736;28;20082;-86
2021/11/10 02:57:10;;;;;;;19.98;8.73;;;;;;;;;;5064163;28;20051;-86
2021/11/10 02:59:36;;;;;;;22.63;8.18;;;;;;;;;;5056852;28;20048;-83
2021/11/10 03:02:02;;;;;;;18.30;8.25;;;;;;;;;;5054423;28;20028;-83
2021/11/10 03:04:34;;;;;;;16.80;8.50;;;;;;;;;;5056353;28;20045;-83
2021/11/10 03:07:00;;;;;;;18.50;7.78;;;;;;;;;;5057174;28;20036;-83
2021/11/10 03:09:29;;;;;;;18.27;8.55;;;;;;;;;;5074860;28;20029;-83
2021/11/10 03:11:58;;;;;;;18.52;8.55;;;;;;;;;;5054483;28;20025;-83
2021/11/10 03:14:29;;;;;;;18.23;8.40;;;;;;;;;;5057117;28;20487;-83
2021/11/10 03:16:55;;;;;;;19.17;8.73;;;;;;;;;;5054516;28;20052;-83
2021/11/10 03:19:21;;;;;;;16.70;8.23;;;;;;;;;;5055680;28;20023;-83
2021/11/10 03:21:47;;;;;;;16.42;8.65;;;;;;;;;;5056825;28;20391;-84
2021/11/10 03:24:13;;;;;;;17.02;8.55;;;;;;;;;;5056489;28;20033;-85
2021/11/10 03:26:38;;;;;;;22.13;9.05;;;;;;;;;;5058000;28;20482;-83
2021/11/10 03:29:04;;;;;;;17.92;8.30;;;;;;;;;;5056353;28;20060;-86
2021/11/10 03:31:32;;;;;;;19.98;8.68;;;;;;;;;;5056505;28;20373;-86
2021/11/10 03:34:00;;;;;;;16.92;9.10;;;;;;;;;;5056605;28;20475;-86
2021/11/10 03:36:26;;;;;;;15.50;7.72;;;;;;;;;;5055977;28;20028;-83
2021/11/10 03:38:51;;;;;;;18.13;8.75;;;;;;;;;;5056285;28;20103;-86
2021/11/10 03:41:19;;;;;;;13.48;8.60;;;;;;;;;;5074395;28;20471;-85
2021/11/10 03:43:45;;;;;;;17.05;8.57;;;;;;;;;;5056199;28;20032;-82
2021/11/10 03:46:11;;;;;;;18.60;8.95;;;;;;;;;;5058025;28;20024;-83
2021/11/10 03:48:36;;;;;;;18.42;8.70;;;;;;;;;;5056872;28;20086;-83
2021/11/10 03:51:02;;;;;;;20.92;8.55;;;;;;;;;;5056390;28;20033;-83
2021/11/10 03:53:28;;;;;;;16.20;8.63;;;;;;;;;;5060547;28;20045;-83
2021/11/10 03:55:53;;;;;;;14.43;8.07;;;;;;;;;;5056307;28;20052;-85
2021/11/10 03:58:19;;;;;;;16.13;8.82;;;;;;;;;;5055894;28;20137;-83
2021/11/10 04:00:44;;;;;;;14.52;8.55;;;;;;;;;;5053716;28;20119;-83
2021/11/10 04:03:10;;;;;;;17.63;9.07;;;;;;;;;;5056007;28;20499;-83
2021/11/10 04:05:35;;;;;;;20.85;9.82;;;;;;;;;;5062121;28;20155;-83
2021/11/10 04:08:01;;;;;;;20.08;9.32;;;;;;;;;;5055927;28;20027;-83
2021/11/10 04:10:26;;;;;;;18.42;9.07;;;;;;;;;;5055350;28;20112;-84
2021/11/10 04:12:52;;;;;;;17.55;8.57;;;;;;;;;;5052737;28;20388;-83
2021/11/10 04:15:17;;;;;;;17.88;9.30;;;;;;;;;;5055167;28;20028;-83
2021/11/10 04:17:43;;;;;;;19.85;9.10;;;;;;;;;;5055637;28;20211;-83
2021/11/10 04:20:09;;;;;;;16.38;9.15;;;;;;;;;;5071600;28;20383;-85
2021/11/10 04:22:35;;;;;;;19.02;9.25;;;;;;;;;;5055459;28;20031;-84
2021/11/10 04:25:01;;;;;;;17.48;10.63;;;;;;;;;;5055109;28;20028;-83
2021/11/10 04:27:26;;;;;;;17.15;9.43;;;;;;;;;;5055709;28;20105;-83
2021/11/10 04:29:52;;;;;;;22.20;9.90;;;;;;;;;;5062058;28;20043;-83
2021/11/10 04:32:18;;;;;;;20.38;9.80;;;;;;;;;;5054941;28;20115;-83
2021/11/10 04:34:44;;;;;;;20.85;10.00;;;;;;;;;;5060088;28;20107;-83
2021/11/10 04:37:14;;;;;;;16.58;9.27;;;;;;;;;;5055222;28;20033;-84
2021/11/10 04:39:41;;;;;;;17.98;8.90;;;;;;;;;;5055253;28;20039;-83
2021/11/10 04:42:09;;;;;;;15.27;9.25;;;;;;;;;;5055097;28;20039;-86
2021/11/10 04:44:37;;;;;;;18.65;9.93;;;;;;;;;;5075921;28;20111;-84
2021/11/10 04:47:05;;;;;;;15.35;9.40;;;;;;;;;;5054607;28;20029;-83
2021/11/10 04:49:31;;;;;;;17.27;9.90;;;;;;;;;;5070214;28;20074;-83
2021/11/10 04:51:59;;;;;;;16.55;9.82;;;;;;;;;;5052121;28;20024;-83
2021/11/10 04:54:30;;;;;;;15.32;9.40;;;;;;;;;;5055609;28;20117;-83
2021/11/10 04:56:56;;;;;;;17.10;10.30;;;;;;;;;;5054694;28;20088;-82
2021/11/10 04:59:22;;;;;;;15.95;10.15;;;;;;;;;;5054889;28;20028;-84
2021/11/10 05:04:34;;;;;;;;;;;;;;;;;;5069631;28;20053;-85
2021/11/10 05:07:00;;;;;;;21.90;10.23;;;;;;;;;;5054725;28;20305;-84
2021/11/10 05:09:25;;;;;;;18.88;10.68;;;;;;;;;;5079296;28;20028;-83
2021/11/10 05:11:51;;;;;;;17.00;9.82;;;;;;;;;;5055122;28;20021;-83
2021/11/10 05:14:16;;;;;;;17.70;11.02;;;;;;;;;;5054116;28;20037;-83
2021/11/10 05:16:42;;;;;;;20.45;10.88;;;;;;;;;;5054333;28;20162;-84
2021/11/10 05:19:07;;;;;;;21.20;11.15;;;;;;;;;;5078959;28;20028;-83
2021/11/10 05:21:33;;;;;;;19.10;10.90;;;;;;;;;;5073042;28;20430;-83
2021/11/10 05:23:58;;;;;;;21.35;11.27;;;;;;;;;;5072390;28;20111;-85
2021/11/10 05:26:23;;;;;;;19.40;10.68;;;;;;;;;;5055714;28;20024;-83
2021/11/10 05:28:49;;;;;;;19.80;10.05;;;;;;;;;;5071895;28;20123;-83
2021/11/10 05:31:15;;;;;;;18.15;10.65;;;;;;;;;;5059280;28;20060;-84
2021/11/10 05:33:40;;;;;;;17.27;10.43;;;;;;;;;;5060457;28;20086;-85
2021/11/10 05:36:05;;;;;;;17.45;9.73;;;;;;;;;;5057651;28;20483;-83
2021/11/10 05:38:31;;;;;;;18.27;10.52;;;;;;;;;;5059822;28;20145;-82
2021/11/10 05:40:56;;;;;;;19.70;9.95;;;;;;;;;;5054485;28;20029;-86
2021/11/10 05:43:22;;;;;;;22.67;11.27;;;;;;;;;;5063568;28;20032;-85
2021/11/10 05:45:47;;;;;;;19.55;10.65;;;;;;;;;;5083654;28;20097;-83
2021/11/10 05:48:12;;;;;;;16.30;10.13;;;;;;;;;;5072127;28;20103;-83
2021/11/10 05:50:38;;;;;;;21.10;10.35;;;;;;;;;;5054588;28;20028;-84
2021/11/10 05:53:04;;;;;;;19.92;10.63;;;;;;;;;;5054189;28;20040;-83
2021/11/10 05:55:29;;;;;;;19.13;9.95;;;;;;;;;;5072448;28;20024;-82
2021/11/10 05:57:56;;;;;;;17.95;10.18;;;;;;;;;;5054767;28;20021;-82
2021/11/10 06:00:21;;;;;;;17.70;9.35;;;;;;;;;;5059468;28;20101;-83
2021/11/10 06:02:48;;;;;;;20.55;11.07;;;;;;;;;;5055767;28;20086;-82
2021/11/10 06:05:15;;;;;;;20.30;10.40;;;;;;;;;;5051627;28;20060;-83
2021/11/10 06:07:41;;;;;;;19.40;10.15;;;;;;;;;;5055182;28;20522;-83
2021/11/10 06:10:07;;;;;;;17.02;10.30;;;;;;;;;;5050858;28;20033;-86
2021/11/10 06:12:45;;;;;;;17.83;10.00;;;;;;;;;;5051193;28;20051;-85
2021/11/10 06:15:12;;;;;;;19.10;10.15;;;;;;;;;;5049042;28;20078;-85
2021/11/10 06:17:38;;;;;;;17.42;10.60;;;;;;;;;;5072546;28;20020;-85
2021/11/10 06:20:05;;;;;;;23.35;10.25;;;;;;;;;;5060446;28;20032;-83
2021/11/10 06:22:30;;;;;;;16.88;9.75;;;;;;;;;;5053959;28;20426;-83
2021/11/10 06:24:56;;;;;;;22.65;10.52;;;;;;;;;;5071750;28;20090;-83
2021/11/10 06:27:21;;;;;;;21.80;10.35;;;;;;;;;;5075241;28;20483;-85
2021/11/10 06:29:46;;;;;;;23.65;10.50;;;;;;;;;;5057496;28;20038;-83
2021/11/10 06:32:12;;;;;;;19.15;9.65;;;;;;;;;;5058068;28;20094;-83
2021/11/10 06:34:37;;;;;;;20.45;9.98;;;;;;;;;;5062127;28;20082;-84
2021/11/10 06:37:03;;;;;;;21.00;11.32;;;;;;;;;;5057881;28;20103;-86
2021/11/10 06:39:47;;;;;;;15.32;9.60;;;;;;;;;;5075137;28;20150;-84
2021/11/10 06:42:12;;;;;;;18.33;10.55;;;;;;;;;;5058387;28;20019;-85
2021/11/10 06:44:38;;;;;;;19.42;10.20;;;;;;;;;;5057898;28;20028;-83
2021/11/10 06:47:04;;;;;;;16.52;10.00;;;;;;;;;;5057592;28;20472;-86
2021/11/10 06:49:30;;;;;;;19.80;10.38;;;;;;;;;;5057373;28;20124;-83
2021/11/10 06:52:03;;;;;;;17.73;10.05;;;;;;;;;;5057925;28;20027;-82
2021/11/10 06:54:29;;;;;;;18.13;10.70;;;;;;;;;;5057632;28;20035;-83
2021/11/10 06:56:54;;;;;;;20.38;11.13;;;;;;;;;;5064159;28;20028;-86
2021/11/10 06:59:20;;;;;;;18.48;10.30;;;;;;;;;;5074582;28;20036;-83
2021/11/10 07:01:47;;;;;;;20.95;10.52;;;;;;;;;;5056492;28;20033;-83
2021/11/10 07:04:13;;;;;;;18.88;10.75;;;;;;;;;;5057870;28;20025;-83
2021/11/10 07:06:38;;;;;;;21.02;10.65;;;;;;;;;;5075401;28;20030;-83
2021/11/10 07:09:06;;;;;;;18.05;9.90;;;;;;;;;;5057208;28;20116;-87
2021/11/10 07:11:34;;;;;;;23.73;11.15;;;;;;;;;;5057104;28;20028;-83
2021/11/10 07:14:00;;;;;;;20.98;10.85;;;;;;;;;;5057307;28;20021;-83
2021/11/10 07:16:25;;;;;;;20.52;10.32;;;;;;;;;;5057174;28;20067;-83
2021/11/10 07:18:50;;;;;;;17.75;10.13;;;;;;;;;;5057064;28;20027;-86
2021/11/10 07:21:16;;;;;;;18.40;11.05;;;;;;;;;;5047946;28;20041;-84
2021/11/10 07:23:42;;;;;;;18.60;10.43;;;;;;;;;;5075975;28;20031;-83
2021/11/10 07:26:07;;;;;;;21.55;11.02;;;;;;;;;;5061465;28;20081;-83
2021/11/10 07:28:33;;;;;;;20.13;10.25;;;;;;;;;;5057706;28;20033;-83
2021/11/10 07:30:58;;;;;;;21.58;10.82;;;;;;;;;;5056793;28;20028;-86
2021/11/10 07:33:24;;;;;;;17.88;10.85;;;;;;;;;;5082618;28;20028;-83
2021/11/10 07:35:49;;;;;;;20.85;11.45;;;;;;;;;;5058741;28;20407;-83
2021/11/10 07:38:15;;;;;;;18.75;10.48;;;;;;;;;;5057285;28;20025;-83
2021/11/10 07:40:40;;;;;;;20.77;10.40;;;;;;;;;;5055763;28;20032;-83
2021/11/10 07:43:06;;;;;;;20.60;10.68;;;;;;;;;;5056743;28;20028;-83
2021/11/10 07:45:35;;;;;;;21.92;10.73;;;;;;;;;;5070445;28;20031;-87
2021/11/10 07:48:04;;;;;;;19.08;10.88;;;;;;;;;;5054744;28;20036;-83
2021/11/10 07:50:30;;;;;;;18.33;10.27;;;;;;;;;;5049037;28;20035;-84
2021/11/10 07:52:56;;;;;;;19.60;10.75;;;;;;;;;;5056643;28;20561;-87
2021/11/10 07:55:22;;;;;;;24.08;10.05;;;;;;;;;;5056397;28;20021;-86
2021/11/10 07:57:48;;;;;;;17.27;10.18;;;;;;;;;;5056652;28;20017;-83
2021/11/10 08:00:17;;;;;;;17.20;9.07;;;;;;;;;;5056572;28;20020;-86
2021/11/10 08:02:43;;;;;;;17.27;9.02;;;;;;;;;;5056254;28;20086;-83
2021/11/10 08:05:11;;;;;;;16.23;9.13;;;;;;;;;;5057698;28;20160;-83
2021/11/10 08:07:36;;;;;;;16.23;8.63;;;;;;;;;;5065291;28;20036;-87
2021/11/10 08:10:03;;;;;;;15.80;8.50;;;;;;;;;;5074136;28;20028;-85
2021/11/10 08:12:31;;;;;;;15.23;8.02;;;;;;;;;;5056050;28;20494;-83
2021/11/10 08:14:57;;;;;;;15.45;8.10;;;;;;;;;;5056026;28;20127;-83
2021/11/10 08:17:22;;;;;;;17.80;9.10;;;;;;;;;;5056063;28;20428;-83
2021/11/10 08:19:47;;;;;;;16.60;9.38;;;;;;;;;;5056255;28;20101;-82
2021/11/10 08:22:13;;;;;;;15.77;9.88;;;;;;;;;;5056027;28;20078;-86
2021/11/10 08:24:38;;;;;;;17.33;9.73;;;;;;;;;;5056084;28;20479;-82
2021/11/10 08:27:04;;;;;;;14.77;9.77;;;;;;;;;;5073459;28;20016;-83
2021/11/10 08:29:29;;;;;;;17.27;9.18;;;;;;;;;;5055414;28;20025;-83
2021/11/10 08:31:55;;;;;;;17.30;9.85;;;;;;;;;;5055533;28;20032;-83
2021/11/10 08:34:20;;;;;;;16.02;9.65;;;;;;;;;;5057290;28;20562;-87
2021/11/10 08:36:46;;;;;;;18.60;10.38;;;;;;;;;;5072389;28;20032;-83
2021/11/10 08:39:12;;;;;;;20.15;10.18;;;;;;;;;;5051107;28;20025;-86
2021/11/10 08:41:37;;;;;;;16.83;9.95;;;;;;;;;;5073806;28;20025;-83
2021/11/10 08:44:03;;;;;;;17.60;9.93;;;;;;;;;;5057457;28;20020;-82
2021/11/10 08:46:31;;;;;;;18.55;10.32;;;;;;;;;;5061324;28;20020;-83
2021/11/10 08:48:57;;;;;;;21.27;11.57;;;;;;;;;;5054981;28;20058;-83
2021/11/10 08:51:23;;;;;;;16.90;9.93;;;;;;;;;;5059471;28;20070;-87
2021/11/10 08:53:49;;;;;;;18.10;11.10;;;;;;;;;;5069279;28;20472;-83
2021/11/10 08:56:15;;;;;;;19.35;11.48;;;;;;;;;;5068153;28;20031;-84
2021/11/10 08:58:40;;;;;;;20.23;10.82;;;;;;;;;;5055180;28;20016;-83
2021/11/10 09:01:06;;;;;;;18.58;10.80;;;;;;;;;;5055200;28;20036;-82
2021/11/10 09:03:31;;;;;;;19.65;10.43;;;;;;;;;;5055186;28;20032;-84
2021/11/10 09:05:57;;;;;;;21.83;11.93;;;;;;;;;;5051924;28;20045;-87
2021/11/10 09:08:26;;;;;;;22.60;11.40;;;;;;;;;;5078820;28;20103;-83
2021/11/10 09:10:55;;;;;;;21.60;11.50;;;;;;;;;;5054852;28;20098;-83
2021/11/10 09:13:21;;;;;;;17.48;11.18;;;;;;;;;;5054629;28;20029;-84
2021/11/10 09:15:46;;;;;;;19.58;11.52;;;;;;;;;;5043611;28;20674;-83
2021/11/10 09:18:12;;;;;;;17.92;11.20;;;;;;;;;;5053773;28;20020;-84
2021/11/10 09:20:39;;;;;;;20.88;12.55;;;;;;;;;;5054728;28;20507;-82
2021/11/10 09:23:07;;;;;;;21.52;12.02;;;;;;;;;;5055029;28;20078;-82
2021/11/10 09:25:34;;;;;;;20.48;11.95;;;;;;;;;;5051840;28;20021;-82
2021/11/10 09:28:05;;;;;;;17.55;11.07;;;;;;;;;;5054388;28;20063;-83
2021/11/10 09:30:33;;;;;;;18.73;11.13;;;;;;;;;;5054006;28;20064;-83
2021/11/10 09:33:03;;;;;;;18.63;11.57;;;;;;;;;;5057075;28;20031;-84
2021/11/10 09:35:31;;;;;;;21.25;12.43;;;;;;;;;;5065508;28;20029;-83
2021/11/10 09:38:05;;;;;;;21.27;12.68;;;;;;;;;;5054825;28;20021;-82
2021/11/10 09:40:33;;;;;;;21.42;11.20;;;;;;;;;;5072376;28;20028;-82
2021/11/10 09:43:00;;;;;;;18.08;11.55;;;;;;;;;;5079514;28;20032;-82
2021/11/10 09:45:33;;;;;;;23.98;12.30;;;;;;;;;;5054752;28;20391;-86
2021/11/10 09:48:00;;;;;;;;;;;;;;;;;;5056530;28;20028;-86
2021/11/10 09:50:28;;;;;;;17.85;11.60;;;;;;;;;;5072983;28;19908;-85
2021/11/10 09:52:55;;;;;;;21.38;11.65;;;;;;;;;;5041489;28;20020;-83
2021/11/10 09:55:23;;;;;;;20.83;12.90;;;;;;;;;;5054579;28;20111;-83
2021/11/10 09:57:50;;;;;;;25.00;13.18;;;;;;;;;;5054935;28;20498;-83
2021/11/10 10:00:19;;;;;;;17.30;11.23;;;;;;;;;;5054560;28;20502;-86
2021/11/10 10:02:46;;;;;;;17.63;11.07;;;;;;;;;;5076478;28;20028;-83
2021/11/10 10:05:15;;;;;;;20.40;12.25;;;;;;;;;;5065119;28;20066;-82
2021/11/10 10:07:43;;;;;;;20.35;11.95;;;;;;;;;;5059625;28;20120;-83
2021/11/10 10:10:09;;;;;;;14.57;8.70;;;;;;;;;;5052382;28;20043;-83
2021/11/10 10:12:34;;;;;;;20.77;11.98;;;;;;;;;;5075858;28;20475;-83
2021/11/10 10:15:00;;;;;;;21.50;11.80;;;;;;;;;;5057985;28;20115;-84
2021/11/10 10:17:43;;;;;;;24.63;12.05;;;;;;;;;;5076246;28;20051;-84
2021/11/10 10:20:40;;;;;;;20.63;11.93;;;;;;;;;;5054625;28;21919;-86
2021/11/10 10:23:09;;;;;;;20.58;12.32;;;;;;;;;;5056713;28;20028;-83
2021/11/10 10:25:55;;;;;;;19.65;12.73;;;;;;;;;;5087704;28;20042;-86
2021/11/10 10:28:37;;;;;;;19.40;10.52;;;;;;;;;;5056209;28;20029;-83
2021/11/10 10:31:08;;;;;;;23.25;12.27;;;;;;;;;;5051375;28;20047;-83
2021/11/10 10:33:36;;;;;;;19.60;12.32;;;;;;;;;;5057358;28;20029;-82
2021/11/10 10:36:07;;;;;;;21.77;12.90;;;;;;;;;;5056861;28;20025;-86
2021/11/10 10:38:36;;;;;;;20.42;12.27;;;;;;;;;;5070771;28;20066;-86
2021/11/10 10:41:04;;;;;;;21.02;12.02;;;;;;;;;;5059689;28;20047;-84
2021/11/10 10:43:38;;;;;;;19.90;12.15;;;;;;;;;;5075496;28;20016;-83
2021/11/10 10:46:04;;;;;;;21.98;12.02;;;;;;;;;;5056932;28;20040;-83
2021/11/10 10:48:30;;;;;;;16.48;11.35;;;;;;;;;;5057463;28;20032;-82
2021/11/10 10:51:03;;;;;;;22.70;12.05;;;;;;;;;;5057691;28;20016;-83
2021/11/10 10:53:42;;;;;;;19.90;11.18;;;;;;;;;;5057401;28;20115;-83
2021/11/10 10:56:31;;;;;;;21.90;12.07;;;;;;;;;;5056473;28;20383;-83
2021/11/10 10:59:13;;;;;;;21.85;11.85;;;;;;;;;;5057932;28;20115;-83
2021/11/10 11:01:44;;;;;;;19.75;11.10;;;;;;;;;;5051571;28;20028;-82
2021/11/10 11:04:15;;;;;;;23.98;11.75;;;;;;;;;;5058018;28;20468;-82
2021/11/10 11:06:45;;;;;;;20.15;10.65;;;;;;;;;;5057121;28;20060;-82
2021/11/10 11:09:28;;;;;;;19.10;11.05;;;;;;;;;;5055380;28;20104;-83
2021/11/10 11:11:59;;;;;;;21.88;11.43;;;;;;;;;;5054075;28;20102;-82
2021/11/10 11:14:38;;;;;;;23.40;12.48;;;;;;;;;;5048951;28;20504;-82
2021/11/10 11:17:23;;;;;;;20.98;11.43;;;;;;;;;;5050578;28;20535;-82
2021/11/10 11:20:10;;;;;;;20.05;11.30;;;;;;;;;;5051662;28;20569;-82
2021/11/10 11:22:50;;;;;;;19.15;12.00;;;;;;;;;;5053395;28;20025;-85
2021/11/10 11:25:25;;;;;;;19.92;12.10;;;;;;;;;;5048333;28;20108;-84
2021/11/10 11:28:06;;;;;;;17.25;11.02;;;;;;;;;;5050465;28;20450;-82
2021/11/10 11:30:41;;;;;;;20.63;11.77;;;;;;;;;;5047869;28;20062;-85
2021/11/10 11:33:12;;;;;;;21.60;12.27;;;;;;;;;;5047296;28;20435;-85
2021/11/10 11:35:40;;;;;;;17.65;10.55;;;;;;;;;;5060920;28;20032;-85
2021/11/10 11:38:11;;;;;;;13.63;8.65;;;;;;;;;;5054790;28;20013;-81
2021/11/10 11:40:39;;;;;;;23.88;13.02;;;;;;;;;;5052554;28;20025;-82
2021/11/10 11:43:10;;;;;;;20.70;12.02;;;;;;;;;;5056711;28;20029;-81
2021/11/10 11:45:38;;;;;;;20.52;11.77;;;;;;;;;;5049420;28;20075;-81
2021/11/10 11:48:06;;;;;;;19.13;11.77;;;;;;;;;;5050564;28;20400;-81
2021/11/10 11:50:32;;;;;;;18.15;11.43;;;;;;;;;;5053712;28;20045;-82
2021/11/10 11:52:58;;;;;;;23.02;12.35;;;;;;;;;;5052357;28;20036;-85
2021/11/10 11:55:38;;;;;;;21.10;12.90;;;;;;;;;;5052162;28;20033;-81
2021/11/10 11:58:18;;;;;;;20.88;12.18;;;;;;;;;;5058865;28;20028;-85
2021/11/10 12:00:48;;;;;;;21.58;12.82;;;;;;;;;;5054091;28;20388;-82
2021/11/10 12:03:37;;;;;;;21.77;13.23;;;;;;;;;;5051561;28;20483;-82
2021/11/10 12:06:02;;;;;;;21.45;12.63;;;;;;;;;;5042696;28;20523;-81
2021/11/10 12:08:43;;;;;;;21.85;12.50;;;;;;;;;;5032930;28;20057;-81
2021/11/10 12:11:30;;;;;;;23.15;12.07;;;;;;;;;;5031539;28;20115;-81
2021/11/10 12:13:58;;;;;;;24.55;12.57;;;;;;;;;;5035510;28;20037;-81
2021/11/10 12:16:24;;;;;;;20.85;12.13;;;;;;;;;;5051296;28;20218;-85
2021/11/10 12:18:57;;;;;;;17.02;10.80;;;;;;;;;;5034814;28;20536;-82
2021/11/10 12:21:39;;;;;;;22.15;11.93;;;;;;;;;;5035266;28;20036;-82
2021/11/10 12:24:10;;;;;;;22.30;12.57;;;;;;;;;;5043095;28;20075;-85
2021/11/10 12:27:12;;;;;;;22.45;13.02;;;;;;;;;;5026934;28;20098;-81
2021/11/10 12:29:42;;;;;;;22.55;13.07;;;;;;;;;;5032070;28;20029;-81
2021/11/10 12:32:08;;;;;;;23.02;13.75;;;;;;;;;;5041991;28;20025;-81
2021/11/10 12:34:35;;;;;;;23.98;12.13;;;;;;;;;;5028877;28;20071;-81
2021/11/10 12:37:03;;;;;;;23.45;12.70;;;;;;;;;;5033265;28;20040;-81
2021/11/10 12:39:35;;;;;;;23.92;13.65;;;;;;;;;;5044897;28;20083;-82
2021/11/10 12:42:10;;;;;;;21.23;12.82;;;;;;;;;;5027250;28;20036;-81
2021/11/10 12:44:50;;;;;;;24.02;13.68;;;;;;;;;;5037671;28;20040;-81
2021/11/10 12:47:17;;;;;;;23.00;12.77;;;;;;;;;;5035617;28;20022;-82
2021/11/10 12:49:43;;;;;;;21.83;12.70;;;;;;;;;;5033397;28;20155;-82
2021/11/10 12:52:16;;;;;;;21.05;12.38;;;;;;;;;;5040137;28;20384;-81
2021/11/10 12:54:47;;;;;;;22.95;12.68;;;;;;;;;;5049208;28;20040;-82
2021/11/10 12:57:33;;;;;;;24.50;13.02;;;;;;;;;;5037019;28;20025;-81
2021/11/10 12:59:59;;;;;;;23.70;14.07;;;;;;;;;;5030411;28;20025;-81
2021/11/10 13:02:26;;;;;;;22.73;13.00;;;;;;;;;;5031082;28;20026;-81
2021/11/10 13:04:56;;;;;;;17.77;12.00;;;;;;;;;;5044640;28;20561;-81
2021/11/10 13:07:31;;;;;;;24.45;13.15;;;;;;;;;;5055812;28;20029;-81
2021/11/10 13:10:09;;;;;;;22.90;13.48;;;;;;;;;;5058763;28;20032;-84
2021/11/10 13:12:37;;;;;;;23.13;14.07;;;;;;;;;;5062805;28;20078;-82
2021/11/10 13:15:04;;;;;;;20.17;12.95;;;;;;;;;;5054684;28;20541;-82
2021/11/10 13:17:32;;;;;;;20.33;13.27;;;;;;;;;;5072439;28;20021;-85
2021/11/10 13:20:00;;;;;;;24.45;13.57;;;;;;;;;;5043252;28;20032;-82
2021/11/10 13:22:38;;;;;;;23.35;13.15;;;;;;;;;;5055614;28;20559;-82
2021/11/10 13:25:23;;;;;;;25.98;13.48;;;;;;;;;;5056405;28;20464;-85
2021/11/10 13:27:56;;;;;;;22.38;13.10;;;;;;;;;;5058079;28;20552;-81
2021/11/10 13:30:42;;;;;;;22.33;13.70;;;;;;;;;;5057973;28;20059;-81
2021/11/10 13:33:26;;;;;;;24.50;13.40;;;;;;;;;;5059242;28;20024;-81
2021/11/10 13:36:02;;;;;;;23.70;13.75;;;;;;;;;;5072532;28;20028;-81
2021/11/10 13:38:40;;;;;;;27.48;14.32;;;;;;;;;;5079596;28;20020;-81
2021/11/10 13:47:02;;;;;;;;;;;;;;;;;;5055169;28;20048;-81
2021/11/10 13:49:31;;;;;;;18.80;11.80;;;;;;;;;;5054685;28;19921;-81
2021/11/10 13:52:03;;;;;;;22.67;12.55;;;;;;;;;;5061916;28;20032;-86
2021/11/10 13:54:53;;;;;;;20.67;12.88;;;;;;;;;;5059607;28;20483;-82
2021/11/10 13:57:27;;;;;;;23.30;13.50;;;;;;;;;;5057227;28;20024;-85
2021/11/10 14:00:19;;;;;;;20.85;13.55;;;;;;;;;;5056800;28;20362;-85
2021/11/10 14:02:47;;;;;;;23.30;12.45;;;;;;;;;;5051028;28;20048;-82
2021/11/10 14:05:16;;;;;;;25.95;13.50;;;;;;;;;;5045797;28;20577;-84
2021/11/10 14:07:43;;;;;;;26.33;13.45;;;;;;;;;;5052218;28;20039;-81
2021/11/10 14:10:11;;;;;;;25.42;13.52;;;;;;;;;;5046253;28;20477;-82
2021/11/10 14:12:57;;;;;;;22.45;14.27;;;;;;;;;;5059475;28;20028;-82
2021/11/10 14:15:39;;;;;;;21.83;12.98;;;;;;;;;;5048073;28;20024;-82
2021/11/10 14:18:09;;;;;;;20.30;11.70;;;;;;;;;;5053832;28;20020;-82
2021/11/10 14:20:55;;;;;;;19.70;12.75;;;;;;;;;;5057669;28;20033;-82
2021/11/10 14:23:32;;;;;;;22.42;12.15;;;;;;;;;;5050125;28;20048;-86
2021/11/10 14:26:03;;;;;;;28.55;14.30;;;;;;;;;;5050856;28;20029;-82
2021/11/10 14:28:35;;;;;;;19.95;11.07;;;;;;;;;;5056524;28;20385;-82
2021/11/10 14:31:10;;;;;;;22.02;12.15;;;;;;;;;;5051528;28;20025;-85
2021/11/10 14:33:37;;;;;;;19.35;12.13;;;;;;;;;;5056890;28;20056;-82
2021/11/10 14:36:12;;;;;;;24.45;12.63;;;;;;;;;;5056375;28;20480;-81
2021/11/10 14:38:40;;;;;;;24.13;13.15;;;;;;;;;;5042834;28;20104;-82
2021/11/10 14:41:12;;;;;;;24.73;12.82;;;;;;;;;;5038295;28;20017;-82